Time;durP1;ratioP1;P1;durP2;ratioP2;P2;SDS_P1;SDS_P2;PMS_P1;PMS_P2;Temp;Humidity;BMP_temperature;BMP_pressure;BME280_temperature;BME280_humidity;BME280_pressure;Samples;Min_cycle;Max_cycle;Signal;HPM_P1;HPM_P2
2022/08/08 00:01:44;;;;;;;0.40;0.30;;;;;;;23.90;100.00;95240.03;5071154;28;20520;-62
2022/08/08 00:04:37;;;;;;;0.40;0.20;;;;;;;23.84;100.00;95249.53;5071851;28;20437;-62
2022/08/08 00:07:19;;;;;;;0.60;0.30;;;;;;;23.90;100.00;95258.97;5071569;28;20461;-62
2022/08/08 00:10:00;;;;;;;1.87;0.60;;;;;;;23.68;100.00;95233.34;5071415;28;20479;-62
2022/08/08 00:12:39;;;;;;;0.40;0.30;;;;;;;23.29;100.00;95254.09;5071739;28;20500;-62
2022/08/08 00:15:19;;;;;;;1.80;1.07;;;;;;;23.17;100.00;95256.13;5071520;28;20884;-62
2022/08/08 00:18:17;;;;;;;0.90;0.90;;;;;;;23.06;100.00;95253.16;5071470;28;20991;-61
2022/08/08 00:20:51;;;;;;;0.80;0.80;;;;;;;23.01;100.00;95258.03;5071818;28;20494;-62
2022/08/08 00:23:27;;;;;;;0.80;0.80;;;;;;;23.20;100.00;95263.53;5070912;28;20452;-62
2022/08/08 00:26:25;;;;;;;1.40;1.33;;;;;;;23.16;100.00;95263.44;5071869;28;20492;-63
2022/08/08 00:29:04;;;;;;;1.60;1.50;;;;;;;23.12;100.00;95259.09;5071639;28;20429;-63
2022/08/08 00:31:40;;;;;;;1.43;1.33;;;;;;;23.12;100.00;95265.25;5071035;28;20752;-63
2022/08/08 00:35:14;;;;;;;0.93;0.93;;;;;;;23.55;100.00;95260.91;5071498;28;20437;-64
2022/08/08 00:38:02;;;;;;;1.53;0.30;;;;;;;23.79;100.00;95256.03;5065713;28;20490;-63
2022/08/08 00:40:47;;;;;;;0.47;0.40;;;;;;;23.88;100.00;95258.53;5071658;28;20506;-64
2022/08/08 00:44:02;;;;;;;0.77;0.77;;;;;;;23.93;100.00;95260.97;5071421;28;20437;-64
2022/08/08 00:47:07;;;;;;;0.50;0.40;;;;;;;23.93;100.00;95259.03;5070958;28;20465;-63
2022/08/08 00:50:33;;;;;;;0.40;0.20;;;;;;;23.96;100.00;95257.53;5037215;28;20429;-64
2022/08/08 00:53:18;;;;;;;0.50;0.43;;;;;;;24.10;98.49;95251.66;5071452;28;20421;-64
2022/08/08 00:56:05;;;;;;;0.60;0.30;;;;;;;23.97;100.00;95259.13;5071362;28;20507;-63
2022/08/08 00:59:16;;;;;;;1.70;0.50;;;;;;;24.07;97.76;95246.94;5071649;28;20449;-63
2022/08/08 01:02:25;;;;;;;0.50;0.30;;;;;;;23.97;99.18;95246.38;5071108;28;20580;-64
2022/08/08 01:05:39;;;;;;;0.60;0.40;;;;;;;23.98;98.64;95239.78;5071273;28;20437;-63
2022/08/08 01:09:00;;;;;;;0.40;0.30;;;;;;;23.82;99.75;95246.41;5070946;28;20428;-63
2022/08/08 01:12:23;;;;;;;4.83;2.00;;;;;;;23.38;100.00;95248.53;5071190;28;20433;-63
2022/08/08 01:15:45;;;;;;;0.50;0.30;;;;;;;23.65;100.00;95244.13;5069691;28;20433;-63
2022/08/08 01:19:12;;;;;;;0.50;0.30;;;;;;;23.52;100.00;95248.88;5055365;28;20488;-63
2022/08/08 01:22:23;;;;;;;0.50;0.40;;;;;;;23.82;98.28;95249.13;5070159;28;20479;-63
2022/08/08 01:25:32;;;;;;;0.50;0.30;;;;;;;23.47;100.00;95248.34;5071392;28;20435;-63
2022/08/08 01:28:24;;;;;;;1.03;0.50;;;;;;;23.57;100.00;95248.59;5073659;28;20432;-63
2022/08/08 01:31:38;;;;;;;0.50;0.50;;;;;;;23.71;100.00;95250.81;5074708;28;20827;-63
2022/08/08 01:35:07;;;;;;;1.00;1.00;;;;;;;23.81;98.37;95248.34;5069340;28;20429;-63
2022/08/08 01:38:11;;;;;;;0.40;0.30;;;;;;;23.78;97.95;95254.44;5057912;28;20437;-63
2022/08/08 01:40:54;;;;;;;0.40;0.40;;;;;;;23.87;98.02;95246.94;5074718;28;20484;-63
2022/08/08 01:43:33;;;;;;;0.40;0.20;;;;;;;23.80;97.92;95243.28;5074701;28;20429;-63
2022/08/08 01:46:35;;;;;;;0.40;0.20;;;;;;;23.78;98.43;95246.31;5073834;28;20913;-63
2022/08/08 01:49:15;;;;;;;0.40;0.30;;;;;;;23.68;100.00;95238.00;5074497;28;20464;-62
2022/08/08 01:52:13;;;;;;;0.60;0.50;;;;;;;23.72;97.35;95236.16;5074228;28;20439;-63
2022/08/08 01:55:13;;;;;;;0.40;0.20;;;;;;;23.76;98.23;95247.81;5074430;28;20433;-63
2022/08/08 01:58:20;;;;;;;0.50;0.30;;;;;;;23.79;97.83;95239.78;5074029;28;20440;-62
2022/08/08 02:01:17;;;;;;;0.40;0.30;;;;;;;23.62;100.00;95240.19;5073603;28;20508;-63
2022/08/08 02:04:03;;;;;;;0.40;0.20;;;;;;;23.59;100.00;95240.09;5073948;28;20421;-63
2022/08/08 02:06:49;;;;;;;0.43;0.30;;;;;;;23.46;100.00;95249.47;5074145;28;20836;-63
2022/08/08 02:09:38;;;;;;;0.50;0.40;;;;;;;23.36;100.00;95250.81;5074184;28;20425;-63
2022/08/08 02:12:32;;;;;;;0.73;0.73;;;;;;;23.15;100.00;95245.66;5073638;28;20924;-63
2022/08/08 02:15:08;;;;;;;0.47;0.33;;;;;;;23.31;100.00;95245.63;5074195;28;20418;-63
2022/08/08 02:17:49;;;;;;;0.63;0.50;;;;;;;22.99;100.00;95244.09;5073190;28;20472;-63
2022/08/08 02:20:28;;;;;;;0.53;0.50;;;;;;;22.86;100.00;95243.41;5073455;28;20486;-63
2022/08/08 02:23:23;;;;;;;0.50;0.50;;;;;;;22.89;100.00;95244.63;5073063;28;20527;-63
2022/08/08 02:26:07;;;;;;;0.40;0.30;;;;;;;23.17;100.00;95251.47;5073349;28;20430;-63
2022/08/08 02:28:48;;;;;;;1.67;1.13;;;;;;;22.55;100.00;95251.44;5073503;28;20417;-63
2022/08/08 02:31:40;;;;;;;0.80;0.57;;;;;;;22.68;100.00;95261.88;5073207;28;20421;-63
2022/08/08 02:35:08;;;;;;;0.60;0.40;;;;;;;22.80;100.00;95262.91;5073060;28;20445;-63
2022/08/08 02:37:54;;;;;;;1.03;0.70;;;;;;;22.79;100.00;95262.16;5000496;28;20799;-63
2022/08/08 02:40:37;;;;;;;2.03;0.80;;;;;;;23.06;100.00;95271.31;5072976;28;20433;-63
2022/08/08 02:43:35;;;;;;;0.83;0.83;;;;;;;22.97;100.00;95268.00;5072830;28;20941;-63
2022/08/08 02:46:37;;;;;;;1.67;1.00;;;;;;;22.81;100.00;95254.47;5072622;28;20445;-63
2022/08/08 02:49:34;;;;;;;1.20;0.80;;;;;;;22.75;100.00;95272.06;5072860;28;20447;-62
2022/08/08 02:52:35;;;;;;;2.23;2.10;;;;;;;22.96;100.00;95269.13;5072942;28;20417;-62
2022/08/08 02:55:41;;;;;;;0.40;0.30;;;;;;;23.13;100.00;95272.25;5072759;28;20513;-62
2022/08/08 02:59:12;;;;;;;0.80;0.80;;;;;;;22.95;99.58;95275.66;5048412;28;20759;-63
2022/08/08 03:02:37;;;;;;;0.80;0.70;;;;;;;22.81;100.00;95272.59;5072436;28;20488;-63
2022/08/08 03:05:53;;;;;;;0.50;0.50;;;;;;;22.97;100.00;95281.50;5056147;28;21129;-63
2022/08/08 03:08:59;;;;;;;0.80;0.80;;;;;;;22.88;100.00;95276.25;5065810;28;20468;-63
2022/08/08 03:12:01;;;;;;;1.70;1.17;;;;;;;22.61;100.00;95275.16;5072702;28;20492;-62
2022/08/08 03:15:06;;;;;;;2.80;1.20;;;;;;;22.82;100.00;95280.34;5072445;28;20425;-63
2022/08/08 03:18:01;;;;;;;0.73;0.73;;;;;;;22.92;100.00;95287.94;5071452;28;20836;-62
2022/08/08 03:20:42;;;;;;;0.60;0.40;;;;;;;22.75;100.00;95285.56;5072121;28;20940;-62
2022/08/08 03:23:19;;;;;;;0.40;0.30;;;;;;;22.91;96.07;95280.19;5072131;28;20518;-62
2022/08/08 03:25:50;;;;;;;0.40;0.20;;;;;;;23.01;99.24;95275.06;5072410;28;20431;-62
2022/08/08 03:28:25;;;;;;;0.40;0.40;;;;;;;23.06;93.95;95298.34;5072028;28;20508;-62
2022/08/08 03:30:53;;;;;;;0.67;0.67;;;;;;;22.90;95.42;95284.81;5071984;28;20443;-62
2022/08/08 03:33:41;;;;;;;0.50;0.50;;;;;;;22.42;99.02;95285.03;5072254;28;20455;-63
2022/08/08 03:36:28;;;;;;;2.40;0.63;;;;;;;22.30;100.00;95282.38;5072094;28;20429;-63
2022/08/08 03:39:00;;;;;;;0.50;0.33;;;;;;;22.55;100.00;95289.25;5071844;28;20422;-63
2022/08/08 03:41:44;;;;;;;0.40;0.30;;;;;;;22.79;97.29;95291.06;5071797;28;20482;-63
2022/08/08 03:44:34;;;;;;;0.57;0.40;;;;;;;22.98;96.19;95301.97;5071944;28;20435;-63
2022/08/08 03:47:06;;;;;;;0.50;0.30;;;;;;;22.87;93.13;95290.13;5071685;28;20427;-63
2022/08/08 03:49:48;;;;;;;0.60;0.60;;;;;;;22.92;100.00;95292.59;5071196;28;20479;-63
2022/08/08 03:52:30;;;;;;;0.53;0.53;;;;;;;22.55;94.90;95294.66;5071515;28;20429;-63
2022/08/08 03:55:09;;;;;;;0.70;0.50;;;;;;;22.66;98.30;95296.56;5071528;28;21017;-63
2022/08/08 03:57:58;;;;;;;0.53;0.53;;;;;;;22.93;100.00;95294.94;5071675;28;20425;-63
2022/08/08 04:00:56;;;;;;;0.50;0.30;;;;;;;22.66;92.89;95247.94;5071499;28;20502;-63
2022/08/08 04:03:46;;;;;;;2.97;0.73;;;;;;;22.98;94.73;95308.19;5071371;28;20477;-63
2022/08/08 04:06:26;;;;;;;0.40;0.30;;;;;;;23.16;100.00;95306.72;5070860;28;20916;-63
2022/08/08 04:08:57;;;;;;;0.50;0.30;;;;;;;23.22;100.00;95305.34;5071450;28;20503;-63
2022/08/08 04:11:44;;;;;;;0.50;0.30;;;;;;;22.78;100.00;95236.25;5071756;28;20433;-63
2022/08/08 04:14:27;;;;;;;0.70;0.70;;;;;;;23.22;96.11;95299.91;5071227;28;20436;-63
2022/08/08 04:17:03;;;;;;;0.70;0.70;;;;;;;23.06;96.83;95311.84;5071059;28;20489;-62
2022/08/08 04:19:42;;;;;;;1.47;1.37;;;;;;;22.72;95.88;95305.97;5071740;28;20524;-63
2022/08/08 04:22:10;;;;;;;0.50;0.40;;;;;;;22.98;96.73;95310.09;5071273;28;20461;-63
2022/08/08 04:24:43;;;;;;;0.40;0.30;;;;;;;23.03;97.95;95318.75;5071333;28;20430;-63
2022/08/08 04:27:19;;;;;;;0.90;0.90;;;;;;;22.81;97.72;95315.84;5071254;28;20428;-63
2022/08/08 04:30:08;;;;;;;1.13;1.13;;;;;;;22.83;100.00;95318.97;5071145;28;20441;-63
2022/08/08 04:32:45;;;;;;;8.43;0.87;;;;;;;22.63;98.35;95313.44;5071305;28;20432;-63
2022/08/08 04:35:18;;;;;;;0.63;0.50;;;;;;;22.61;98.89;95329.19;5071500;28;20500;-63
2022/08/08 04:37:50;;;;;;;0.50;0.37;;;;;;;22.91;97.45;95326.94;5071363;28;20466;-63
2022/08/08 04:40:19;;;;;;;2.87;1.63;;;;;;;23.18;97.59;95327.97;5071126;28;20451;-64
2022/08/08 04:42:53;;;;;;;0.60;0.40;;;;;;;23.15;96.43;95331.38;5070996;28;20534;-63
2022/08/08 04:45:25;;;;;;;0.60;0.50;;;;;;;23.34;95.69;95331.50;5070992;28;20451;-64
2022/08/08 04:47:55;;;;;;;0.60;0.60;;;;;;;23.09;97.00;95335.50;5070998;28;20432;-64
2022/08/08 04:50:24;;;;;;;1.03;1.00;;;;;;;23.52;95.13;95335.44;5071243;28;20435;-64
2022/08/08 04:53:05;;;;;;;1.10;1.00;;;;;;;23.28;92.56;95333.66;5071254;28;20440;-64
2022/08/08 04:55:53;;;;;;;2.40;0.57;;;;;;;23.00;96.17;95342.97;5070883;28;20425;-65
2022/08/08 04:58:25;;;;;;;0.63;0.63;;;;;;;22.40;97.36;95263.78;5071074;28;20810;-65
2022/08/08 05:00:54;;;;;;;0.73;0.73;;;;;;;22.59;97.92;95285.50;5070902;28;20429;-64
2022/08/08 05:03:23;;;;;;;0.83;0.83;;;;;;;23.07;97.57;95348.56;5073375;28;20465;-64
2022/08/08 05:06:11;;;;;;;2.50;1.27;;;;;;;23.43;96.79;95355.69;5074464;28;20447;-64
2022/08/08 05:08:53;;;;;;;0.57;0.43;;;;;;;23.40;95.34;95348.28;5074727;28;20810;-64
2022/08/08 05:11:23;;;;;;;0.70;0.70;;;;;;;23.29;95.27;95351.47;5074634;28;20475;-64
2022/08/08 05:13:54;;;;;;;1.30;1.03;;;;;;;23.34;96.32;95339.59;5074604;28;20941;-63
2022/08/08 05:16:29;;;;;;;0.50;0.30;;;;;;;23.85;91.12;95348.56;5074674;28;20420;-62
2022/08/08 05:19:18;;;;;;;0.40;0.30;;;;;;;23.96;91.77;95339.53;5073449;28;20472;-61
2022/08/08 05:22:08;;;;;;;0.50;0.30;;;;;;;24.33;87.33;95355.47;5074653;28;20437;-61
2022/08/08 05:24:38;;;;;;;0.50;0.43;;;;;;;24.34;86.01;95352.38;5074513;28;20421;-61
2022/08/08 05:27:07;;;;;;;0.40;0.30;;;;;;;24.34;84.28;95341.53;5074560;28;20417;-61
2022/08/08 05:29:37;;;;;;;0.57;0.43;;;;;;;24.48;91.81;95347.28;5074633;28;20498;-60
2022/08/08 05:32:09;;;;;;;0.90;0.90;;;;;;;24.65;87.45;95340.63;5074446;28;20421;-60
2022/08/08 05:34:46;;;;;;;0.50;0.37;;;;;;;24.70;85.76;95329.50;5074454;28;20437;-67
2022/08/08 05:37:19;;;;;;;0.57;0.43;;;;;;;25.06;91.27;95329.03;5074195;28;20417;-65
2022/08/08 05:39:52;;;;;;;0.60;0.50;;;;;;;25.54;97.61;95337.63;5074080;28;20421;-66
2022/08/08 05:42:24;;;;;;;0.63;0.63;;;;;;;25.45;78.46;95340.56;5073941;28;20890;-67
2022/08/08 05:45:02;;;;;;;0.40;0.30;;;;;;;25.75;74.57;95343.41;5073045;28;20421;-68
2022/08/08 05:47:52;;;;;;;0.50;0.50;;;;;;;25.85;73.45;95331.91;5072126;28;20421;-68
2022/08/08 05:50:29;;;;;;;1.20;0.80;;;;;;;25.96;70.69;95337.50;5071802;28;20515;-68
2022/08/08 05:53:00;;;;;;;0.57;0.50;;;;;;;25.77;71.88;95244.13;5071894;28;20417;-69
2022/08/08 05:55:49;;;;;;;0.40;0.30;;;;;;;26.59;65.92;95340.31;5071823;28;20435;-69
2022/08/08 05:58:41;;;;;;;1.00;0.50;;;;;;;26.78;71.25;95345.59;5071629;28;20437;-69
2022/08/08 06:01:27;;;;;;;0.43;0.40;;;;;;;27.06;64.25;95341.25;5073110;28;20447;-70
2022/08/08 06:04:22;;;;;;;0.47;0.43;;;;;;;27.18;60.62;95331.22;5073805;28;20485;-72
2022/08/08 06:06:52;;;;;;;0.60;0.50;;;;;;;27.35;56.45;95328.66;5073894;28;20424;-73
2022/08/08 06:09:27;;;;;;;0.50;0.40;;;;;;;27.51;56.27;95336.63;5074058;28;20421;-74
2022/08/08 06:12:17;;;;;;;2.67;0.30;;;;;;;27.66;51.68;95328.19;5073485;28;20448;-73
2022/08/08 06:15:00;;;;;;;0.50;0.43;;;;;;;27.71;54.17;95327.03;5074019;28;20463;-69
2022/08/08 06:17:32;;;;;;;0.50;0.47;;;;;;;27.77;52.14;95344.63;5073289;28;20485;-69
2022/08/08 06:20:20;;;;;;;0.40;0.40;;;;;;;27.90;48.33;95345.09;5073445;28;20941;-68
2022/08/08 06:22:50;;;;;;;2.00;1.90;;;;;;;28.36;48.39;95345.41;5073693;28;20414;-68
2022/08/08 06:25:18;;;;;;;1.23;0.40;;;;;;;28.71;47.98;95340.13;5073795;28;20500;-68
2022/08/08 06:28:13;;;;;;;0.40;0.30;;;;;;;29.30;46.78;95333.28;5073361;28;20488;-69
2022/08/08 06:30:44;;;;;;;0.40;0.30;;;;;;;29.63;42.72;95330.16;5073729;28;20417;-69
2022/08/08 06:33:16;;;;;;;0.40;0.30;;;;;;;29.46;41.11;95331.75;5073386;28;20410;-68
2022/08/08 06:36:06;;;;;;;0.60;0.60;;;;;;;29.64;39.95;95339.16;5072807;28;20503;-67
2022/08/08 06:38:40;;;;;;;0.90;0.90;;;;;;;29.48;39.29;95304.03;5073131;28;20425;-69
2022/08/08 06:41:11;;;;;;;0.50;0.50;;;;;;;29.83;39.41;95339.56;5073166;28;20420;-68
2022/08/08 06:43:44;;;;;;;0.40;0.37;;;;;;;29.77;39.80;95343.06;5073347;28;20471;-69
2022/08/08 06:46:24;;;;;;;0.70;0.40;;;;;;;30.15;37.19;95339.53;5072964;28;20430;-69
2022/08/08 06:48:59;;;;;;;1.40;0.33;;;;;;;30.25;37.55;95346.94;5073222;28;20780;-68
2022/08/08 06:51:29;;;;;;;1.13;0.30;;;;;;;30.60;37.09;95337.88;5072878;28;20465;-69
2022/08/08 06:54:18;;;;;;;0.50;0.50;;;;;;;30.39;37.34;95332.44;5072813;28;20434;-71
2022/08/08 06:56:50;;;;;;;0.80;0.40;;;;;;;29.87;36.77;95317.72;5072610;28;20427;-73
2022/08/08 06:59:20;;;;;;;0.60;0.60;;;;;;;30.06;36.69;95336.41;5073178;28;20908;-75
2022/08/08 07:01:54;;;;;;;0.50;0.30;;;;;;;30.58;36.08;95342.94;5072796;28;20506;-74
2022/08/08 07:04:50;;;;;;;0.87;0.87;;;;;;;30.85;36.51;95343.22;5072666;28;20469;-73
2022/08/08 07:07:27;;;;;;;1.40;0.30;;;;;;;30.66;36.45;95336.28;5072686;28;20430;-69
2022/08/08 07:10:04;;;;;;;0.73;0.47;;;;;;;30.26;35.93;95329.34;5072638;28;20427;-69
2022/08/08 07:12:41;;;;;;;0.40;0.40;;;;;;;30.85;35.15;95337.75;5072550;28;20429;-68
2022/08/08 07:15:12;;;;;;;0.40;0.30;;;;;;;30.68;35.67;95339.41;5072503;28;20419;-67
2022/08/08 07:18:04;;;;;;;0.40;0.40;;;;;;;30.74;35.37;95329.59;5071993;28;20486;-66
2022/08/08 07:20:59;;;;;;;0.40;0.30;;;;;;;30.55;35.33;95332.78;5072414;28;20434;-66
2022/08/08 07:23:38;;;;;;;0.70;0.40;;;;;;;31.00;34.46;95331.84;5072444;28;20858;-66
2022/08/08 07:26:31;;;;;;;0.57;0.57;;;;;;;31.24;35.23;95316.44;5071969;28;20547;-65
2022/08/08 07:29:04;;;;;;;0.50;0.30;;;;;;;30.97;34.92;95324.41;5072679;28;20850;-64
2022/08/08 07:31:48;;;;;;;0.50;0.40;;;;;;;31.82;33.64;95330.13;5072581;28;20537;-65
2022/08/08 07:34:17;;;;;;;0.50;0.30;;;;;;;32.23;33.12;95327.38;5072330;28;20449;-65
2022/08/08 07:36:57;;;;;;;0.50;0.30;;;;;;;32.20;33.51;95322.72;5072494;28;20462;-65
2022/08/08 07:39:27;;;;;;;0.83;0.83;;;;;;;32.35;32.44;95331.56;5072093;28;20890;-64
2022/08/08 07:42:13;;;;;;;0.50;0.47;;;;;;;32.06;31.64;95287.19;5072150;28;20433;-64
2022/08/08 07:44:48;;;;;;;0.90;0.50;;;;;;;31.98;32.99;95335.03;5072318;28;20521;-65
2022/08/08 07:47:18;;;;;;;0.40;0.30;;;;;;;31.61;32.63;95327.53;5072438;28;20460;-63
2022/08/08 07:50:06;;;;;;;0.30;0.30;;;;;;;32.41;32.47;95341.69;5072266;28;20513;-64
2022/08/08 07:52:38;;;;;;;1.03;0.50;;;;;;;33.17;31.41;95323.91;5072099;28;20425;-62
2022/08/08 07:55:17;;;;;;;0.40;0.30;;;;;;;33.36;30.07;95336.22;5072048;28;20418;-62
2022/08/08 07:57:51;;;;;;;0.87;0.87;;;;;;;33.54;31.16;95312.78;5072250;28;20510;-61
2022/08/08 08:00:21;;;;;;;0.50;0.40;;;;;;;34.02;29.77;95322.59;5071907;28;20801;-60
2022/08/08 08:03:04;;;;;;;0.40;0.33;;;;;;;34.37;29.17;95316.47;5072243;28;20431;-60
2022/08/08 08:05:41;;;;;;;0.80;0.30;;;;;;;33.76;28.77;95327.75;5071768;28;20483;-60
2022/08/08 08:08:17;;;;;;;0.50;0.37;;;;;;;33.49;30.17;95335.25;5071759;28;20416;-59
2022/08/08 08:10:51;;;;;;;0.37;0.30;;;;;;;33.00;31.62;95320.22;5071871;28;20913;-60
2022/08/08 08:13:34;;;;;;;0.40;0.30;;;;;;;32.25;30.28;95316.00;5071873;28;20444;-60
2022/08/08 08:16:24;;;;;;;0.40;0.40;;;;;;;32.68;30.74;95330.03;5071971;28;20535;-60
2022/08/08 08:18:55;;;;;;;0.30;0.30;;;;;;;33.69;28.55;95319.63;5071647;28;20533;-60
2022/08/08 08:21:28;;;;;;;0.63;0.43;;;;;;;34.53;27.13;95308.31;5072157;28;20436;-64
2022/08/08 08:24:18;;;;;;;0.60;0.57;;;;;;;34.85;27.52;95315.94;5071540;28;20503;-61
2022/08/08 08:26:53;;;;;;;0.30;0.20;;;;;;;34.58;27.40;95312.56;5071753;28;20424;-61
2022/08/08 08:29:22;;;;;;;0.40;0.30;;;;;;;35.42;26.50;95307.97;5071580;28;20413;-61
2022/08/08 08:31:55;;;;;;;0.50;0.33;;;;;;;35.66;25.77;95312.16;5071669;28;20186;-61
2022/08/08 08:34:26;;;;;;;0.70;0.50;;;;;;;35.29;26.16;95325.63;5071573;28;20189;-61
2022/08/08 08:37:01;;;;;;;0.40;0.40;;;;;;;35.51;25.48;95308.16;5074578;28;20259;-60
2022/08/08 08:39:36;;;;;;;0.50;0.50;;;;;;;35.52;26.40;95317.22;5075876;28;20580;-60
2022/08/08 08:42:25;;;;;;;0.50;0.40;;;;;;;35.19;25.51;95321.13;5075710;28;20194;-61
2022/08/08 08:45:05;;;;;;;0.50;0.33;;;;;;;34.69;25.75;95313.09;5075340;28;20289;-60
2022/08/08 08:47:51;;;;;;;0.43;0.30;;;;;;;35.09;24.53;95309.16;5075147;28;20189;-60
2022/08/08 08:50:21;;;;;;;2.10;0.40;;;;;;;34.82;24.91;95309.28;5075781;28;20182;-60
2022/08/08 08:53:03;;;;;;;0.40;0.30;;;;;;;33.81;24.55;95308.03;5075391;28;20233;-60
2022/08/08 08:55:54;;;;;;;0.63;0.63;;;;;;;33.38;27.09;95314.59;5075228;28;20599;-60
2022/08/08 08:58:34;;;;;;;2.80;0.30;;;;;;;32.60;27.03;95236.03;5075166;28;20424;-61
2022/08/08 09:01:06;;;;;;;0.50;0.50;;;;;;;33.18;26.50;95307.03;5075209;28;20412;-60
2022/08/08 09:03:42;;;;;;;1.40;0.53;;;;;;;34.26;25.91;95304.88;5075457;28;20427;-60
2022/08/08 09:06:21;;;;;;;0.47;0.47;;;;;;;35.14;25.64;95300.38;5075045;28;20471;-61
2022/08/08 09:09:04;;;;;;;0.50;0.40;;;;;;;35.60;23.87;95299.31;5075375;28;20188;-60
2022/08/08 09:11:51;;;;;;;0.50;0.40;;;;;;;35.47;21.74;95295.69;5075132;28;20994;-60
2022/08/08 09:14:35;;;;;;;0.30;0.30;;;;;;;36.41;22.44;95271.63;5074602;28;20619;-59
2022/08/08 09:17:13;;;;;;;0.33;0.33;;;;;;;35.93;23.85;95272.47;5074365;28;20186;-59
2022/08/08 09:19:47;;;;;;;0.30;0.30;;;;;;;36.45;23.68;95297.13;5074510;28;20205;-59
2022/08/08 09:22:35;;;;;;;0.50;0.40;;;;;;;36.47;24.05;95292.75;5074235;28;20226;-60
2022/08/08 09:25:08;;;;;;;0.30;0.30;;;;;;;36.44;22.47;95290.84;5074403;28;20206;-59
2022/08/08 09:27:39;;;;;;;0.40;0.30;;;;;;;36.64;23.32;95287.94;5074155;28;20187;-59
2022/08/08 09:30:26;;;;;;;0.40;0.30;;;;;;;36.64;21.96;95282.41;5074449;28;20225;-59
2022/08/08 09:32:56;;;;;;;0.40;0.30;;;;;;;35.29;23.47;95270.50;5074288;28;20187;-59
2022/08/08 09:35:47;;;;;;;0.30;0.30;;;;;;;35.88;23.00;95278.50;5074389;28;20194;-58
2022/08/08 09:38:30;;;;;;;0.50;0.50;;;;;;;36.43;23.20;95288.53;5074150;28;20511;-60
2022/08/08 09:41:05;;;;;;;0.73;0.40;;;;;;;36.45;22.71;95283.31;5074346;28;20233;-61
2022/08/08 09:43:47;;;;;;;0.30;0.30;;;;;;;37.36;23.20;95274.34;5074107;28;20260;-61
2022/08/08 09:46:38;;;;;;;0.43;0.43;;;;;;;37.42;21.33;95281.66;5073868;28;20229;-62
2022/08/08 09:49:14;;;;;;;2.15;0.40;;;;;;;35.94;23.14;95274.81;5073087;28;20186;-62
2022/08/08 09:52:04;;;;;;;0.40;0.40;;;;;;;34.38;23.50;95285.03;5074260;28;20569;-61
2022/08/08 09:54:45;;;;;;;0.30;0.30;;;;;;;35.27;23.43;95262.66;5074101;28;20259;-61
2022/08/08 09:57:21;;;;;;;0.50;0.50;;;;;;;36.06;22.45;95278.88;5074177;28;20186;-60
2022/08/08 09:59:59;;;;;;;0.35;0.30;;;;;;;36.47;21.10;95275.38;5073987;28;20190;-59
2022/08/08 10:02:49;;;;;;;0.47;0.47;;;;;;;37.30;21.20;95281.63;5073779;28;20206;-60
2022/08/08 10:05:19;;;;;;;0.40;0.30;;;;;;;37.37;21.57;95209.50;5073759;28;20206;-61
2022/08/08 10:07:57;;;;;;;0.50;0.30;;;;;;;37.42;21.02;95272.59;5073930;28;20192;-61
2022/08/08 10:10:29;;;;;;;0.30;0.30;;;;;;;37.42;19.72;95267.81;5073773;28;20277;-61
2022/08/08 10:13:00;;;;;;;0.68;0.60;;;;;;;36.27;21.47;95268.03;5073732;28;20641;-61
2022/08/08 10:15:46;;;;;;;0.30;0.30;;;;;;;36.31;22.06;95263.19;5073357;28;20182;-61
2022/08/08 10:18:29;;;;;;;0.40;0.30;;;;;;;35.21;24.19;95271.88;5073165;28;20306;-61
2022/08/08 10:21:04;;;;;;;0.30;0.22;;;;;;;35.43;21.82;95270.94;5072778;28;20191;-60
2022/08/08 10:23:53;;;;;;;0.40;0.30;;;;;;;35.72;22.42;95254.50;5073660;28;20260;-60
2022/08/08 10:26:30;;;;;;;0.50;0.40;;;;;;;36.60;22.54;95262.41;5073628;28;20206;-60
2022/08/08 10:29:23;;;;;;;0.50;0.40;;;;;;;35.95;22.54;95264.56;5073541;28;20779;-60
2022/08/08 10:34:52;;;;;;;17.67;1.60;;;;;;;36.35;21.44;95259.56;5073460;28;20182;-60
2022/08/08 10:37:29;;;;;;;0.30;0.30;;;;;;;36.06;20.21;95256.78;5073144;28;20186;-59
2022/08/08 10:39:59;;;;;;;0.30;0.30;;;;;;;35.71;20.58;95258.47;5073468;28;20237;-59
2022/08/08 10:42:36;;;;;;;0.40;0.30;;;;;;;36.38;20.35;95262.22;5073138;28;20228;-61
2022/08/08 10:45:12;;;;;;;0.33;0.30;;;;;;;35.87;20.98;95257.66;5072954;28;20193;-59
2022/08/08 10:47:51;;;;;;;0.40;0.40;;;;;;;36.44;21.70;95256.91;5072963;28;20674;-59
2022/08/08 10:50:31;;;;;;;0.53;0.30;;;;;;;37.43;21.80;95252.78;5072759;28;20624;-59
2022/08/08 10:53:06;;;;;;;0.30;0.30;;;;;;;37.92;20.11;95255.16;5073256;28;20194;-59
2022/08/08 10:55:41;;;;;;;0.55;0.40;;;;;;;37.43;20.47;95249.25;5072830;28;20240;-60
2022/08/08 10:58:14;;;;;;;0.40;0.30;;;;;;;37.62;21.68;95236.38;5072699;28;20190;-60
2022/08/08 11:00:44;;;;;;;0.90;0.50;;;;;;;37.75;21.58;95237.13;5071881;28;20242;-60
2022/08/08 11:03:23;;;;;;;0.50;0.38;;;;;;;38.90;22.11;95236.19;5072600;28;20638;-60
2022/08/08 11:06:12;;;;;;;0.57;0.55;;;;;;;38.19;18.93;95233.22;5072533;28;20222;-59
2022/08/08 11:08:41;;;;;;;0.60;0.60;;;;;;;37.75;19.16;95226.06;5072321;28;20198;-62
2022/08/08 11:11:21;;;;;;;0.50;0.30;;;;;;;37.35;19.05;95234.06;5072302;28;20186;-60
2022/08/08 11:14:12;;;;;;;0.40;0.30;;;;;;;35.98;20.37;95159.59;5072400;28;20210;-62
2022/08/08 11:16:44;;;;;;;0.65;0.65;;;;;;;36.65;20.74;95235.03;5071686;28;20198;-62
2022/08/08 11:19:16;;;;;;;0.40;0.30;;;;;;;36.10;21.65;95240.94;5071166;28;20275;-62
2022/08/08 11:21:48;;;;;;;0.40;0.40;;;;;;;35.51;23.25;95225.47;5072494;28;20263;-61
2022/08/08 11:24:26;;;;;;;0.50;0.50;;;;;;;35.28;22.75;95233.13;5071849;28;20629;-62
2022/08/08 11:27:01;;;;;;;0.40;0.30;;;;;;;35.47;22.01;95229.53;5071334;28;20210;-60
2022/08/08 11:29:48;;;;;;;0.30;0.30;;;;;;;36.00;21.99;95236.47;5071805;28;20196;-59
2022/08/08 11:32:31;;;;;;;0.30;0.20;;;;;;;36.87;22.33;95227.66;5071597;28;20270;-60
2022/08/08 11:35:07;;;;;;;0.67;0.40;;;;;;;36.03;21.21;95205.22;5072052;28;20179;-60
2022/08/08 11:37:56;;;;;;;1.90;0.30;;;;;;;35.20;23.08;95215.19;5071066;28;20194;-63
2022/08/08 11:40:45;;;;;;;0.40;0.30;;;;;;;34.39;23.20;95226.78;5071525;28;20198;-60
2022/08/08 11:43:21;;;;;;;5.73;0.60;;;;;;;33.97;24.64;95224.06;5071465;28;20182;-61
2022/08/08 11:45:53;;;;;;;0.43;0.40;;;;;;;34.81;24.36;95227.13;5071787;28;20241;-60
2022/08/08 11:48:43;;;;;;;0.50;0.40;;;;;;;35.59;23.54;95223.31;5071849;28;20539;-61
2022/08/08 11:51:20;;;;;;;0.30;0.30;;;;;;;36.76;23.49;95212.63;5071477;28;20427;-60
2022/08/08 11:54:08;;;;;;;0.50;0.30;;;;;;;36.87;20.00;95213.84;5071358;28;20286;-62
2022/08/08 11:57:08;;;;;;;0.70;0.40;;;;;;;36.97;19.11;95213.97;5071691;28;20431;-62
2022/08/08 11:59:44;;;;;;;0.53;0.53;;;;;;;36.50;19.52;95202.75;5071714;28;20259;-61
2022/08/08 12:02:31;;;;;;;0.50;0.40;;;;;;;36.51;19.48;95169.16;5071261;28;20201;-61
2022/08/08 12:05:03;;;;;;;0.40;0.40;;;;;;;37.05;19.75;95193.19;5071205;28;20654;-62
2022/08/08 12:07:46;;;;;;;0.70;0.40;;;;;;;37.99;20.73;95200.31;5071288;28;20267;-61
2022/08/08 12:10:20;;;;;;;0.40;0.30;;;;;;;37.31;19.54;95205.78;5070976;28;20190;-59
2022/08/08 12:12:50;;;;;;;2.47;0.30;;;;;;;36.11;21.72;95207.38;5071297;28;20190;-61
2022/08/08 12:15:29;;;;;;;0.80;0.50;;;;;;;35.11;22.89;95209.53;5071342;28;20222;-61
2022/08/08 12:18:17;;;;;;;0.40;0.30;;;;;;;33.87;23.54;95195.59;5070994;28;20269;-61
2022/08/08 12:20:52;;;;;;;0.40;0.40;;;;;;;33.63;25.27;95205.06;5071479;28;20193;-61
2022/08/08 12:23:34;;;;;;;0.40;0.40;;;;;;;33.71;24.00;95181.75;5071264;28;20208;-61
2022/08/08 12:26:23;;;;;;;0.40;0.30;;;;;;;35.21;22.53;95197.47;5070919;28;20483;-60
2022/08/08 12:29:18;;;;;;;0.40;0.30;;;;;;;35.97;21.13;95176.63;5071296;28;20424;-60
2022/08/08 12:32:00;;;;;;;0.40;0.40;;;;;;;36.56;22.39;95203.75;5070822;28;20222;-59
2022/08/08 12:34:40;;;;;;;3.07;0.40;;;;;;;37.09;21.15;95199.38;5070871;28;20631;-62
2022/08/08 12:37:11;;;;;;;0.40;0.30;;;;;;;36.92;19.73;95184.88;5071205;28;20268;-69
2022/08/08 12:39:40;;;;;;;0.40;0.40;;;;;;;37.18;19.51;95199.47;5071281;28;20242;-68
2022/08/08 12:42:29;;;;;;;0.30;0.30;;;;;;;36.95;20.68;95175.72;5071152;28;20289;-63
2022/08/08 12:45:10;;;;;;;0.33;0.27;;;;;;;37.17;21.00;95190.41;5071520;28;20617;-64
2022/08/08 12:48:02;;;;;;;0.43;0.43;;;;;;;35.89;21.78;95166.97;5070944;28;20229;-63
2022/08/08 12:50:46;;;;;;;1.37;0.23;;;;;;;36.00;22.39;95154.44;5070962;28;20186;-58